Time;durP1;ratioP1;P1;durP2;ratioP2;P2;SDS_P1;SDS_P2;PMS_P1;PMS_P2;Temp;Humidity;BMP_temperature;BMP_pressure;BME280_temperature;BME280_humidity;BME280_pressure;Samples;Min_cycle;Max_cycle;Signal;HPM_P1;HPM_P2
2024/02/28 00:01:15;;;;;;;18.03;13.53;;;9.90;99.90;;;;;;5085038;28;20187;-83
2024/02/28 00:03:41;;;;;;;16.08;12.88;;;10.10;99.90;;;;;;5089668;28;20186;-83
2024/02/28 00:06:06;;;;;;;16.40;13.10;;;9.80;99.90;;;;;;5089095;28;20441;-83
2024/02/28 00:08:32;;;;;;;18.70;14.67;;;9.80;99.90;;;;;;5087082;28;20215;-83
2024/02/28 00:10:57;;;;;;;16.73;13.50;;;9.80;99.90;;;;;;5083725;28;20184;-83
2024/02/28 00:13:24;;;;;;;19.50;15.20;;;10.20;99.90;;;;;;5087193;28;20185;-83
2024/02/28 00:15:50;;;;;;;15.43;13.07;;;10.00;99.90;;;;;;5077915;28;20251;-83
2024/02/28 00:18:16;;;;;;;16.20;13.07;;;9.90;99.90;;;;;;5076970;28;20278;-83
2024/02/28 00:20:44;;;;;;;17.65;14.13;;;9.90;99.90;;;;;;5073894;28;20683;-83
2024/02/28 00:23:09;;;;;;;16.20;12.85;;;10.40;99.90;;;;;;5074307;28;20187;-83
2024/02/28 00:25:35;;;;;;;17.47;13.47;;;10.10;99.90;;;;;;5092526;28;20234;-83
2024/02/28 00:28:01;;;;;;;17.40;12.90;;;10.20;99.90;;;;;;5074434;28;20214;-83
2024/02/28 00:30:28;;;;;;;17.50;13.80;;;9.90;99.90;;;;;;5078499;28;20454;-83
2024/02/28 00:32:54;;;;;;;16.90;13.70;;;9.70;99.90;;;;;;5072644;28;20202;-83
2024/02/28 00:35:19;;;;;;;16.80;13.50;;;9.50;99.90;;;;;;5076393;28;20217;-83
2024/02/28 00:37:45;;;;;;;15.07;12.27;;;9.70;99.90;;;;;;5076524;28;20460;-83
2024/02/28 00:40:11;;;;;;;15.60;13.00;;;10.10;99.90;;;;;;5074116;28;20192;-83
2024/02/28 00:42:36;;;;;;;15.85;12.52;;;9.80;99.90;;;;;;5072253;28;20187;-84
2024/02/28 00:45:02;;;;;;;16.80;14.13;;;10.10;99.90;;;;;;5071414;28;20197;-84
2024/02/28 00:47:28;;;;;;;18.53;13.70;;;9.80;99.90;;;;;;5076112;28;20289;-84
2024/02/28 00:49:53;;;;;;;15.67;13.00;;;9.80;99.90;;;;;;5077477;28;20426;-84
2024/02/28 00:52:19;;;;;;;16.77;13.70;;;10.00;99.90;;;;;;5090091;28;20621;-84
2024/02/28 00:54:44;;;;;;;16.03;12.27;;;9.90;99.90;;;;;;5069617;28;20271;-84
2024/02/28 00:57:10;;;;;;;17.10;13.47;;;10.10;99.90;;;;;;5067226;28;20215;-84
2024/02/28 00:59:35;;;;;;;17.30;13.10;;;10.10;99.90;;;;;;5070750;28;20274;-84
2024/02/28 01:02:03;;;;;;;15.93;13.17;;;9.70;99.90;;;;;;5073057;28;20190;-84
2024/02/28 01:04:28;;;;;;;17.30;13.70;;;9.50;99.90;;;;;;5069848;28;20188;-84
2024/02/28 01:06:54;;;;;;;19.03;14.00;;;9.90;99.90;;;;;;5073138;28;20203;-84
2024/02/28 01:09:21;;;;;;;17.10;12.83;;;9.20;99.90;;;;;;5072014;28;20208;-84
2024/02/28 01:11:46;;;;;;;18.20;14.45;;;9.40;99.90;;;;;;5077016;28;20190;-84
2024/02/28 01:14:12;;;;;;;16.27;14.33;;;9.40;99.90;;;;;;5086496;28;20246;-84
2024/02/28 01:16:37;;;;;;;17.30;14.43;;;9.20;99.90;;;;;;5079298;28;20301;-84
2024/02/28 01:19:03;;;;;;;20.20;14.57;;;9.60;99.90;;;;;;5071491;28;20189;-84
2024/02/28 01:21:28;;;;;;;18.50;14.50;;;9.60;99.90;;;;;;5078403;28;20179;-84
2024/02/28 01:23:54;;;;;;;15.00;13.03;;;9.50;99.90;;;;;;5079912;28;20182;-83
2024/02/28 01:26:21;;;;;;;18.57;14.13;;;9.50;99.90;;;;;;5076497;28;20221;-83
2024/02/28 01:28:47;;;;;;;18.27;15.00;;;10.00;99.90;;;;;;5071985;28;20273;-83
2024/02/28 01:31:13;;;;;;;17.77;14.27;;;9.50;99.90;;;;;;5086420;28;20245;-83
2024/02/28 01:33:38;;;;;;;19.70;15.20;;;9.30;99.90;;;;;;5078459;28;20195;-84
2024/02/28 01:36:06;;;;;;;17.93;13.97;;;9.80;99.90;;;;;;5077809;28;20222;-84
2024/02/28 01:38:32;;;;;;;20.08;15.75;;;9.60;99.90;;;;;;5074518;28;20224;-83
2024/02/28 01:40:57;;;;;;;17.90;14.80;;;9.20;99.90;;;;;;5072225;28;20183;-84
2024/02/28 01:43:23;;;;;;;23.93;16.80;;;9.40;99.90;;;;;;5074278;28;20879;-84
2024/02/28 01:45:49;;;;;;;20.80;15.00;;;9.70;99.90;;;;;;5072120;28;21343;-83
2024/02/28 01:48:16;;;;;;;22.10;15.95;;;9.60;99.90;;;;;;5072796;28;20583;-84
2024/02/28 01:50:41;;;;;;;18.40;15.10;;;9.10;99.90;;;;;;5070001;28;20179;-81
2024/02/28 01:53:09;;;;;;;18.60;14.23;;;9.20;99.90;;;;;;5073360;28;20670;-82
2024/02/28 01:55:35;;;;;;;21.17;15.52;;;9.20;99.90;;;;;;5072528;28;20261;-82
2024/02/28 01:58:05;;;;;;;19.60;14.43;;;9.40;99.90;;;;;;5075057;28;20560;-82
2024/02/28 02:00:32;;;;;;;20.95;15.68;;;9.30;99.90;;;;;;5069538;28;20280;-82
2024/02/28 02:02:58;;;;;;;19.75;14.25;;;9.60;99.90;;;;;;5069806;28;20194;-82
2024/02/28 02:05:23;;;;;;;18.40;14.47;;;10.00;99.90;;;;;;5073453;28;20215;-83
2024/02/28 02:07:50;;;;;;;21.13;15.67;;;9.50;99.90;;;;;;5073278;28;20220;-83
2024/02/28 02:10:16;;;;;;;23.50;15.20;;;9.20;99.90;;;;;;5072982;28;20183;-83
2024/02/28 02:12:41;;;;;;;18.93;14.80;;;9.30;99.90;;;;;;5071393;28;20542;-84
2024/02/28 02:15:07;;;;;;;20.73;16.67;;;9.40;99.90;;;;;;5076067;28;20687;-83
2024/02/28 02:17:33;;;;;;;20.20;14.87;;;9.40;99.90;;;;;;5068403;28;20189;-83
2024/02/28 02:19:58;;;;;;;19.70;15.37;;;9.00;99.90;;;;;;5070726;28;20424;-83
2024/02/28 02:22:28;;;;;;;21.80;15.30;;;9.80;99.90;;;;;;5068275;28;20220;-83
2024/02/28 02:24:53;;;;;;;20.92;14.65;;;9.40;99.90;;;;;;5068332;28;20225;-83
2024/02/28 02:27:18;;;;;;;18.70;14.40;;;9.40;99.90;;;;;;5066191;28;20251;-83
2024/02/28 02:29:44;;;;;;;17.87;13.83;;;9.40;99.90;;;;;;5073554;28;20282;-83
2024/02/28 02:32:09;;;;;;;20.07;15.50;;;9.70;99.90;;;;;;5076539;28;20674;-83
2024/02/28 02:34:35;;;;;;;22.70;16.07;;;9.60;99.90;;;;;;5089888;28;20255;-83
2024/02/28 02:37:00;;;;;;;21.13;15.30;;;9.50;99.90;;;;;;5082191;28;20270;-83
2024/02/28 02:39:26;;;;;;;18.40;15.77;;;9.40;99.90;;;;;;5081525;28;20298;-82
2024/02/28 02:41:51;;;;;;;21.10;15.43;;;9.40;99.90;;;;;;5077376;28;20194;-83
2024/02/28 02:44:17;;;;;;;18.60;14.70;;;9.30;99.90;;;;;;5083136;28;20507;-83
2024/02/28 02:46:43;;;;;;;25.20;17.27;;;9.40;99.90;;;;;;5075388;28;20232;-83
2024/02/28 02:49:08;;;;;;;19.80;15.43;;;9.50;99.90;;;;;;5077950;28;20223;-83
2024/02/28 02:51:34;;;;;;;19.17;14.63;;;9.70;99.90;;;;;;5074736;28;20182;-83
2024/02/28 02:54:00;;;;;;;19.33;15.40;;;9.60;99.90;;;;;;5072802;28;20192;-83
2024/02/28 02:56:26;;;;;;;17.92;14.27;;;8.90;99.90;;;;;;5071222;28;20209;-83
2024/02/28 02:58:51;;;;;;;21.40;15.40;;;8.90;99.90;;;;;;5075776;28;20463;-83
2024/02/28 03:01:17;;;;;;;17.53;14.13;;;10.20;99.90;;;;;;5073514;28;20278;-83
2024/02/28 03:03:42;;;;;;;18.03;14.60;;;9.40;99.90;;;;;;5073367;28;20190;-83
2024/02/28 03:06:09;;;;;;;18.27;14.70;;;9.60;99.90;;;;;;5079071;28;20224;-82
2024/02/28 03:08:36;;;;;;;18.85;13.52;;;9.30;99.90;;;;;;5071847;28;20213;-83
2024/02/28 03:11:04;;;;;;;16.48;12.85;;;9.10;99.90;;;;;;5071657;28;20184;-83
2024/02/28 03:13:29;;;;;;;19.48;14.38;;;9.20;99.90;;;;;;5076877;28;20188;-83
2024/02/28 03:15:55;;;;;;;18.43;14.23;;;9.60;99.90;;;;;;5074093;28;20237;-83
2024/02/28 03:18:20;;;;;;;18.77;15.07;;;9.60;99.90;;;;;;5089914;28;20212;-83
2024/02/28 03:20:46;;;;;;;17.53;13.80;;;9.30;99.90;;;;;;5085919;28;20187;-83
2024/02/28 03:23:11;;;;;;;20.77;14.10;;;9.60;99.90;;;;;;5087301;28;20209;-83
2024/02/28 03:25:37;;;;;;;16.93;14.20;;;9.30;99.90;;;;;;5077421;28;20237;-83
2024/02/28 03:28:03;;;;;;;18.73;13.40;;;9.60;99.90;;;;;;5071976;28;20220;-83
2024/02/28 03:30:28;;;;;;;17.25;13.68;;;9.20;99.90;;;;;;5072598;28;20345;-83
2024/02/28 03:32:54;;;;;;;21.30;14.20;;;9.50;99.90;;;;;;5071291;28;20212;-83
2024/02/28 03:35:20;;;;;;;16.57;13.30;;;9.60;99.90;;;;;;5071934;28;20208;-82
2024/02/28 03:37:45;;;;;;;17.90;13.70;;;8.90;99.90;;;;;;5075459;28;20185;-83
2024/02/28 03:40:11;;;;;;;19.00;15.33;;;8.90;99.90;;;;;;5077388;28;20194;-83
2024/02/28 03:42:37;;;;;;;18.77;15.45;;;9.00;99.90;;;;;;5084233;28;20181;-83
2024/02/28 03:45:02;;;;;;;17.00;13.57;;;9.00;99.90;;;;;;5079655;28;20214;-83
2024/02/28 03:47:28;;;;;;;19.77;15.43;;;8.90;99.90;;;;;;5075520;28;20265;-83
2024/02/28 03:49:57;;;;;;;19.90;14.83;;;8.80;99.90;;;;;;5074116;28;20419;-84
2024/02/28 03:52:23;;;;;;;19.85;15.65;;;9.50;99.90;;;;;;5078618;28;20577;-83
2024/02/28 03:54:48;;;;;;;19.80;15.17;;;;;;;;;;5074025;28;20280;-84
2024/02/28 03:57:14;;;;;;;16.73;14.00;;;9.00;99.90;;;;;;5075282;28;20407;-83
2024/02/28 03:59:41;;;;;;;18.67;15.33;;;9.00;99.90;;;;;;5076420;28;20415;-83
2024/02/28 04:02:06;;;;;;;16.38;13.30;;;9.10;99.90;;;;;;5079610;28;20206;-83
2024/02/28 04:04:32;;;;;;;20.57;14.70;;;9.40;99.90;;;;;;5073401;28;20190;-83
2024/02/28 04:06:57;;;;;;;20.53;14.70;;;9.40;99.90;;;;;;5068824;28;20203;-83
2024/02/28 04:09:23;;;;;;;19.70;16.20;;;9.10;99.90;;;;;;5069785;28;20254;-83
2024/02/28 04:11:48;;;;;;;17.77;14.17;;;9.00;99.90;;;;;;5072685;28;20184;-83
2024/02/28 04:14:14;;;;;;;18.23;13.93;;;9.00;99.90;;;;;;5070036;28;20189;-84
2024/02/28 04:16:43;;;;;;;19.20;14.33;;;9.20;99.90;;;;;;5069289;28;20202;-84
2024/02/28 04:19:10;;;;;;;19.05;15.77;;;8.80;99.90;;;;;;5085052;28;20194;-84
2024/02/28 04:21:35;;;;;;;17.98;14.60;;;9.20;99.90;;;;;;5069072;28;20193;-83
2024/02/28 04:24:01;;;;;;;17.13;13.07;;;9.00;99.90;;;;;;5071936;28;20185;-83
2024/02/28 04:26:26;;;;;;;18.23;14.13;;;9.00;99.90;;;;;;5075008;28;20214;-83
2024/02/28 04:28:52;;;;;;;19.03;14.50;;;9.00;99.90;;;;;;5069727;28;20201;-83
2024/02/28 04:31:17;;;;;;;18.47;14.20;;;9.20;99.90;;;;;;5073706;28;20173;-83
2024/02/28 04:33:43;;;;;;;24.30;16.50;;;9.00;99.90;;;;;;5068565;28;20578;-82
2024/02/28 04:36:08;;;;;;;18.97;14.57;;;8.90;99.90;;;;;;5076813;28;20204;-81
2024/02/28 04:38:34;;;;;;;17.53;13.53;;;9.20;99.90;;;;;;5075361;28;20273;-81
2024/02/28 04:40:59;;;;;;;17.93;14.47;;;8.90;99.90;;;;;;5075874;28;20666;-81
2024/02/28 04:43:25;;;;;;;20.73;13.93;;;9.00;99.90;;;;;;5077310;28;20185;-81
2024/02/28 04:45:50;;;;;;;17.43;13.83;;;8.90;99.90;;;;;;5081891;28;20205;-81
2024/02/28 04:48:16;;;;;;;19.50;14.10;;;8.60;99.90;;;;;;5083094;28;20603;-81
2024/02/28 04:50:41;;;;;;;18.27;15.67;;;8.80;99.90;;;;;;5075543;28;20193;-81
2024/02/28 04:53:07;;;;;;;18.70;14.63;;;8.60;99.90;;;;;;5073950;28;20532;-80
2024/02/28 04:55:32;;;;;;;18.03;14.43;;;8.50;99.90;;;;;;5074373;28;20255;-81
2024/02/28 04:57:58;;;;;;;18.50;14.67;;;8.50;99.90;;;;;;5074131;28;20265;-80
2024/02/28 05:00:23;;;;;;;19.47;14.63;;;8.00;99.90;;;;;;5071430;28;20257;-81
2024/02/28 05:02:49;;;;;;;19.67;15.00;;;8.60;99.90;;;;;;5071794;28;20197;-81
2024/02/28 05:05:15;;;;;;;19.43;14.43;;;;;;;;;;5072719;28;20217;-81
2024/02/28 05:07:40;;;;;;;16.43;13.90;;;8.30;99.90;;;;;;5078928;28;21610;-81
2024/02/28 05:10:06;;;;;;;17.40;13.80;;;8.80;99.90;;;;;;5073631;28;20512;-81
2024/02/28 05:12:32;;;;;;;18.90;14.48;;;8.30;99.90;;;;;;5075296;28;20609;-81
2024/02/28 05:14:57;;;;;;;18.77;15.07;;;8.60;99.90;;;;;;5077588;28;20201;-81
2024/02/28 05:17:23;;;;;;;19.57;15.20;;;8.60;99.90;;;;;;5073396;28;20192;-81
2024/02/28 05:19:48;;;;;;;18.40;14.37;;;8.40;99.90;;;;;;5069111;28;20196;-81
2024/02/28 05:22:14;;;;;;;18.33;14.77;;;8.20;99.90;;;;;;5080226;28;20195;-81
2024/02/28 05:24:40;;;;;;;16.80;13.93;;;8.30;99.90;;;;;;5079820;28;20180;-81
2024/02/28 05:27:05;;;;;;;19.90;15.17;;;8.70;99.90;;;;;;5076060;28;20266;-81
2024/02/28 05:29:31;;;;;;;18.50;13.93;;;8.40;99.90;;;;;;5069446;28;20213;-81
2024/02/28 05:31:56;;;;;;;20.33;14.37;;;8.30;99.90;;;;;;5071637;28;20197;-81
2024/02/28 05:34:22;;;;;;;21.90;15.20;;;8.50;99.90;;;;;;5071282;28;20465;-81
2024/02/28 05:36:48;;;;;;;18.90;14.87;;;8.30;99.90;;;;;;5071061;28;20204;-81
2024/02/28 05:39:14;;;;;;;18.27;14.52;;;8.30;99.90;;;;;;5067486;28;20628;-81
2024/02/28 05:41:39;;;;;;;18.30;14.40;;;8.40;99.90;;;;;;5063537;28;20197;-82
2024/02/28 05:44:05;;;;;;;19.33;13.33;;;8.30;99.90;;;;;;5071958;28;20257;-82
2024/02/28 05:46:30;;;;;;;15.87;13.13;;;8.30;99.90;;;;;;5068632;28;20214;-82
2024/02/28 05:48:56;;;;;;;19.40;15.37;;;8.10;99.90;;;;;;5080139;28;20259;-87
2024/02/28 05:51:22;;;;;;;20.13;14.07;;;8.20;99.90;;;;;;5098900;28;20219;-86
2024/02/28 05:53:48;;;;;;;19.92;15.38;;;8.40;99.90;;;;;;5075687;28;20199;-87
2024/02/28 05:56:13;;;;;;;17.27;15.27;;;8.40;99.90;;;;;;5069935;28;20224;-87
2024/02/28 05:58:43;;;;;;;17.63;13.93;;;8.30;99.90;;;;;;5065194;28;20181;-86
2024/02/28 06:01:14;;;;;;;20.42;15.38;;;8.30;99.90;;;;;;5067571;28;20444;-87
2024/02/28 06:03:42;;;;;;;18.88;14.88;;;8.50;99.90;;;;;;5066660;28;20221;-86
2024/02/28 06:06:07;;;;;;;18.30;15.48;;;8.10;99.90;;;;;;5070482;28;20252;-85
2024/02/28 06:08:34;;;;;;;19.90;14.60;;;8.30;99.90;;;;;;5074226;28;20232;-85
2024/02/28 06:11:00;;;;;;;19.85;16.08;;;8.10;99.90;;;;;;5071098;28;20185;-82
2024/02/28 06:13:26;;;;;;;21.83;15.80;;;8.10;99.90;;;;;;5075757;28;20270;-83
2024/02/28 06:15:52;;;;;;;20.63;15.48;;;8.40;99.90;;;;;;5072376;28;20470;-83
2024/02/28 06:18:17;;;;;;;20.33;14.90;;;8.00;99.90;;;;;;5078841;28;20193;-82
2024/02/28 06:20:43;;;;;;;18.43;15.90;;;7.90;99.90;;;;;;5088379;28;20188;-82
2024/02/28 06:23:08;;;;;;;21.37;16.50;;;8.10;99.90;;;;;;5080952;28;20186;-81
2024/02/28 06:25:34;;;;;;;18.13;15.07;;;8.10;99.90;;;;;;5081672;28;20208;-82
2024/02/28 06:28:01;;;;;;;21.27;16.40;;;8.00;99.90;;;;;;5079085;28;20213;-83
2024/02/28 06:30:27;;;;;;;19.27;15.27;;;7.80;99.90;;;;;;5067777;28;20623;-82
2024/02/28 06:32:52;;;;;;;21.70;16.73;;;8.30;99.90;;;;;;5077484;28;20196;-82
2024/02/28 06:35:18;;;;;;;24.03;15.20;;;8.40;99.90;;;;;;5075387;28;20250;-82
2024/02/28 06:37:49;;;;;;;22.13;16.40;;;8.00;99.90;;;;;;5080519;28;20432;-82
2024/02/28 06:40:15;;;;;;;23.30;17.33;;;8.40;99.90;;;;;;5077611;28;20605;-82
2024/02/28 06:42:41;;;;;;;20.37;15.87;;;8.20;99.90;;;;;;5076969;28;20185;-82
2024/02/28 06:45:07;;;;;;;20.03;15.60;;;8.00;99.90;;;;;;5082041;28;20554;-82
2024/02/28 06:47:32;;;;;;;18.55;15.60;;;8.20;99.90;;;;;;5077604;28;20504;-82
2024/02/28 06:49:58;;;;;;;21.33;15.37;;;7.90;99.90;;;;;;5072588;28;20177;-82
2024/02/28 06:52:23;;;;;;;22.33;15.23;;;8.10;99.90;;;;;;5076376;28;20444;-82
2024/02/28 06:54:49;;;;;;;21.23;15.90;;;8.00;99.90;;;;;;5087568;28;20185;-83
2024/02/28 06:57:14;;;;;;;18.93;15.30;;;7.90;99.90;;;;;;5090747;28;20189;-82
2024/02/28 06:59:40;;;;;;;26.27;16.40;;;8.20;99.90;;;;;;5086571;28;20185;-83
2024/02/28 07:02:06;;;;;;;21.20;16.47;;;8.20;99.90;;;;;;5092744;28;20243;-82
2024/02/28 07:04:31;;;;;;;19.93;15.97;;;8.40;99.90;;;;;;5089333;28;20189;-82
2024/02/28 07:06:57;;;;;;;21.67;16.40;;;8.30;99.90;;;;;;5092093;28;20227;-83
2024/02/28 07:09:25;;;;;;;20.63;14.77;;;8.40;99.90;;;;;;5090442;28;20268;-83
2024/02/28 07:11:52;;;;;;;19.48;15.88;;;8.50;99.90;;;;;;5067613;28;20177;-83
2024/02/28 07:14:17;;;;;;;21.02;16.98;;;8.30;99.90;;;;;;5065206;28;20238;-85
2024/02/28 07:16:43;;;;;;;23.70;18.30;;;8.30;99.90;;;;;;5061066;28;20684;-81
2024/02/28 07:19:09;;;;;;;21.67;16.90;;;8.40;99.90;;;;;;5064575;28;20246;-83
2024/02/28 07:21:36;;;;;;;20.87;16.20;;;8.70;99.90;;;;;;5077314;28;20185;-82
2024/02/28 07:24:04;;;;;;;19.98;15.30;;;8.70;99.90;;;;;;5066658;28;20180;-82
2024/02/28 07:26:30;;;;;;;19.48;15.68;;;8.50;99.90;;;;;;5071073;28;20350;-82
2024/02/28 07:28:56;;;;;;;26.23;16.73;;;8.70;99.90;;;;;;5075368;28;20291;-81
2024/02/28 07:31:22;;;;;;;19.80;15.87;;;8.70;99.90;;;;;;5061273;28;20184;-83
2024/02/28 07:33:47;;;;;;;19.00;16.10;;;9.00;99.90;;;;;;5081669;28;20223;-82
2024/02/28 07:36:13;;;;;;;21.00;15.77;;;8.90;99.90;;;;;;5073964;28;20203;-83
2024/02/28 07:38:41;;;;;;;19.23;16.07;;;8.80;99.90;;;;;;5071812;28;20618;-82
2024/02/28 07:41:06;;;;;;;19.42;15.05;;;8.50;99.90;;;;;;5074427;28;20186;-83
2024/02/28 07:43:36;;;;;;;22.50;16.47;;;8.70;99.90;;;;;;5074416;28;20190;-83
2024/02/28 07:46:13;;;;;;;21.60;16.55;;;8.80;99.90;;;;;;5069788;28;20691;-82
2024/02/28 07:48:39;;;;;;;17.98;15.77;;;8.60;99.90;;;;;;5075730;28;20222;-81
2024/02/28 07:51:05;;;;;;;22.80;16.57;;;9.20;99.90;;;;;;5081596;28;20202;-81
2024/02/28 07:53:31;;;;;;;19.52;15.77;;;9.00;99.90;;;;;;5086638;28;20450;-81
2024/02/28 07:55:58;;;;;;;18.93;15.17;;;8.50;99.90;;;;;;5086908;28;20209;-81
2024/02/28 07:58:23;;;;;;;22.15;17.80;;;9.00;99.90;;;;;;5082016;28;20171;-83
2024/02/28 08:00:52;;;;;;;19.33;15.97;;;8.70;99.90;;;;;;5086946;28;20227;-82
2024/02/28 08:03:18;;;;;;;18.02;14.57;;;8.70;99.90;;;;;;5078742;28;20189;-84
2024/02/28 08:05:44;;;;;;;21.70;15.95;;;8.90;99.90;;;;;;5061293;28;20231;-83
2024/02/28 08:08:10;;;;;;;20.98;15.63;;;9.50;99.90;;;;;;5068715;28;20238;-85
2024/02/28 08:10:37;;;;;;;24.30;16.50;;;9.10;99.90;;;;;;5068628;28;20207;-91
2024/02/28 08:13:03;;;;;;;18.88;15.63;;;8.90;99.90;;;;;;5070019;28;20413;-87
2024/02/28 08:15:29;;;;;;;18.15;14.70;;;9.20;99.90;;;;;;5071402;28;20194;-87
2024/02/28 08:17:54;;;;;;;20.57;16.03;;;8.90;99.90;;;;;;5070571;28;20191;-87
2024/02/28 08:20:20;;;;;;;21.50;16.30;;;9.20;99.90;;;;;;5073539;28;20214;-86
2024/02/28 08:22:46;;;;;;;19.83;16.03;;;9.20;99.90;;;;;;5071220;28;20189;-84
2024/02/28 08:25:12;;;;;;;21.70;16.83;;;9.10;99.90;;;;;;5069078;28;20445;-84
2024/02/28 08:27:38;;;;;;;19.70;15.90;;;9.10;99.90;;;;;;5067712;28;20424;-85
2024/02/28 08:30:05;;;;;;;22.83;16.20;;;9.00;99.90;;;;;;5070391;28;20199;-85
2024/02/28 08:32:31;;;;;;;22.83;17.58;;;9.00;99.90;;;;;;5055760;28;20197;-82
2024/02/28 08:34:58;;;;;;;23.60;16.63;;;9.30;99.90;;;;;;5075390;28;20183;-84
2024/02/28 08:37:23;;;;;;;22.00;16.85;;;9.00;99.90;;;;;;5076638;28;20617;-86
2024/02/28 08:39:49;;;;;;;22.10;16.80;;;9.20;99.90;;;;;;5066364;28;20286;-85
2024/02/28 08:42:15;;;;;;;19.33;16.00;;;9.30;99.90;;;;;;5071784;28;20456;-86
2024/02/28 08:44:40;;;;;;;20.10;15.07;;;9.60;99.90;;;;;;5069725;28;20440;-86
2024/02/28 08:47:09;;;;;;;19.60;16.47;;;9.60;99.90;;;;;;5072910;28;20246;-87
2024/02/28 08:49:35;;;;;;;22.67;15.02;;;9.00;99.90;;;;;;5081578;28;20222;-88
2024/02/28 08:52:01;;;;;;;26.23;18.63;;;9.60;99.90;;;;;;5070452;28;20189;-85
2024/02/28 08:54:26;;;;;;;25.37;16.30;;;9.30;99.90;;;;;;5068853;28;20189;-87
2024/02/28 08:56:52;;;;;;;21.73;17.10;;;9.10;99.90;;;;;;5068513;28;20202;-88
2024/02/28 08:59:18;;;;;;;24.07;17.83;;;9.40;99.90;;;;;;5070127;28;20201;-86
2024/02/28 09:01:43;;;;;;;24.77;17.60;;;9.00;99.90;;;;;;5082964;28;20190;-82
2024/02/28 09:04:09;;;;;;;22.13;16.97;;;9.00;99.90;;;;;;5085214;28;20414;-83
2024/02/28 09:06:34;;;;;;;22.50;17.60;;;9.30;99.90;;;;;;5077990;28;20583;-82
2024/02/28 09:09:00;;;;;;;23.00;17.70;;;9.50;99.90;;;;;;5076272;28;20223;-83
2024/02/28 09:11:26;;;;;;;19.80;15.57;;;8.50;99.90;;;;;;5074322;28;20197;-83
2024/02/28 09:13:52;;;;;;;21.83;17.80;;;8.80;99.90;;;;;;5074464;28;20185;-81
2024/02/28 09:16:18;;;;;;;19.73;15.75;;;9.10;99.90;;;;;;5067227;28;20252;-83
2024/02/28 09:18:44;;;;;;;22.17;16.27;;;9.20;99.90;;;;;;5069428;28;20186;-82
2024/02/28 09:21:09;;;;;;;20.40;16.47;;;9.20;99.90;;;;;;5095006;28;20186;-83
2024/02/28 09:23:35;;;;;;;21.37;16.20;;;9.20;99.90;;;;;;5074805;28;20190;-83
2024/02/28 09:26:04;;;;;;;33.33;20.77;;;9.10;99.90;;;;;;5067637;28;20613;-83
2024/02/28 09:28:29;;;;;;;25.38;18.27;;;9.30;99.90;;;;;;5075394;28;20210;-83
2024/02/28 09:30:55;;;;;;;30.37;22.17;;;8.90;99.90;;;;;;5077279;28;20179;-83
2024/02/28 09:33:20;;;;;;;17.23;15.07;;;9.30;99.90;;;;;;5077266;28;20186;-88
2024/02/28 09:35:46;;;;;;;25.27;16.83;;;9.80;99.90;;;;;;5078314;28;20199;-82
2024/02/28 09:38:11;;;;;;;23.33;15.60;;;9.10;99.90;;;;;;5084107;28;20172;-83
2024/02/28 09:40:38;;;;;;;21.70;15.97;;;9.10;99.90;;;;;;5083274;28;20236;-86
2024/02/28 09:43:04;;;;;;;21.95;15.70;;;9.20;99.90;;;;;;5083410;28;20253;-86
2024/02/28 09:45:31;;;;;;;19.70;16.00;;;9.00;99.90;;;;;;5073449;28;20255;-87
2024/02/28 09:48:00;;;;;;;21.05;16.05;;;9.20;99.90;;;;;;5074183;28;20445;-87
2024/02/28 09:50:27;;;;;;;19.83;16.10;;;9.70;99.90;;;;;;5073887;28;20262;-86
2024/02/28 09:52:55;;;;;;;21.08;16.52;;;9.60;99.90;;;;;;5072816;28;20644;-85
2024/02/28 09:55:21;;;;;;;23.02;15.88;;;9.70;99.90;;;;;;5074577;28;20214;-83
2024/02/28 09:57:52;;;;;;;20.30;15.75;;;9.80;99.90;;;;;;5073684;28;20190;-86
2024/02/28 10:00:20;;;;;;;22.48;15.73;;;9.50;99.90;;;;;;5069874;28;20187;-85
2024/02/28 10:02:48;;;;;;;18.17;14.98;;;9.40;99.90;;;;;;5075224;28;20190;-86
2024/02/28 10:05:15;;;;;;;19.50;15.57;;;10.00;99.90;;;;;;5076021;28;20728;-87
2024/02/28 10:07:42;;;;;;;19.83;15.32;;;9.30;99.90;;;;;;5073192;28;20194;-85
2024/02/28 10:10:08;;;;;;;21.40;16.55;;;9.80;99.90;;;;;;5070913;28;20186;-85
2024/02/28 10:12:34;;;;;;;20.05;15.23;;;9.30;99.90;;;;;;5088682;28;20728;-86
2024/02/28 10:15:03;;;;;;;22.00;16.07;;;9.60;99.90;;;;;;5083295;28;20536;-87
2024/02/28 10:17:28;;;;;;;17.48;13.82;;;9.30;99.90;;;;;;5084075;28;20196;-86
2024/02/28 10:19:54;;;;;;;17.47;13.50;;;9.70;99.90;;;;;;5079315;28;20190;-85
2024/02/28 10:22:20;;;;;;;20.20;14.07;;;9.30;99.90;;;;;;5068373;28;20206;-85
2024/02/28 10:24:45;;;;;;;17.37;12.93;;;9.30;99.90;;;;;;5073381;28;20186;-86
2024/02/28 10:27:16;;;;;;;19.77;14.70;;;9.40;99.90;;;;;;5077096;28;20498;-86
2024/02/28 10:29:44;;;;;;;17.88;13.95;;;9.90;99.90;;;;;;5075192;28;20203;-87
2024/02/28 10:32:10;;;;;;;16.48;13.75;;;9.20;99.90;;;;;;5072552;28;20266;-86
2024/02/28 10:34:37;;;;;;;15.10;12.88;;;9.20;99.90;;;;;;5078132;28;20187;-85
2024/02/28 10:37:04;;;;;;;15.40;12.27;;;9.20;99.90;;;;;;5084340;28;20251;-85
2024/02/28 10:39:32;;;;;;;16.05;12.65;;;9.40;99.90;;;;;;5070571;28;20552;-84
2024/02/28 10:42:01;;;;;;;18.05;13.93;;;9.10;99.90;;;;;;5072634;28;20189;-85
2024/02/28 10:44:27;;;;;;;15.98;13.30;;;9.70;99.90;;;;;;5062160;28;20190;-85
2024/02/28 10:46:54;;;;;;;16.20;12.57;;;9.70;99.90;;;;;;5071475;28;20568;-84
2024/02/28 10:49:20;;;;;;;16.23;13.00;;;9.70;99.90;;;;;;5067838;28;20217;-84
2024/02/28 10:51:48;;;;;;;19.23;13.17;;;9.80;99.90;;;;;;5069610;28;20374;-85
2024/02/28 10:54:15;;;;;;;16.60;13.13;;;10.10;99.90;;;;;;5071854;28;20211;-85
2024/02/28 10:56:42;;;;;;;15.68;12.70;;;9.80;99.90;;;;;;5068372;28;20208;-85
2024/02/28 10:59:09;;;;;;;15.88;12.52;;;9.70;99.90;;;;;;5069314;28;20187;-85
2024/02/28 11:01:42;;;;;;;17.15;11.68;;;9.80;99.90;;;;;;5066835;28;20757;-85
2024/02/28 11:04:08;;;;;;;15.32;12.85;;;9.80;99.90;;;;;;5065568;28;20186;-85
2024/02/28 11:06:33;;;;;;;17.75;13.80;;;9.90;99.90;;;;;;5069354;28;20298;-85
2024/02/28 11:09:03;;;;;;;16.47;12.53;;;9.70;99.90;;;;;;5076344;28;20270;-86
2024/02/28 11:11:32;;;;;;;15.50;13.18;;;9.80;99.90;;;;;;5071874;28;20199;-86
2024/02/28 11:14:00;;;;;;;15.80;12.77;;;10.20;99.90;;;;;;5070785;28;20400;-84
2024/02/28 11:16:33;;;;;;;16.85;12.98;;;9.90;99.90;;;;;;5066525;28;20227;-84
2024/02/28 11:19:03;;;;;;;18.67;13.45;;;9.60;99.90;;;;;;5078587;28;20185;-84
2024/02/28 11:21:29;;;;;;;22.60;13.52;;;10.10;99.90;;;;;;5087317;28;20192;-84
2024/02/28 11:24:00;;;;;;;17.07;13.63;;;9.40;99.90;;;;;;5094493;28;20202;-85
2024/02/28 11:26:27;;;;;;;16.50;13.07;;;9.90;99.90;;;;;;5089952;28;20502;-85
2024/02/28 11:28:55;;;;;;;17.08;13.88;;;10.20;99.90;;;;;;5073919;28;20206;-83
2024/02/28 11:31:22;;;;;;;17.20;13.65;;;9.60;99.90;;;;;;5080138;28;20185;-84
2024/02/28 11:33:47;;;;;;;15.63;13.07;;;9.70;99.90;;;;;;5056604;28;20268;-84
2024/02/28 11:36:13;;;;;;;19.90;14.30;;;9.50;99.90;;;;;;5067124;28;20210;-82
2024/02/28 11:38:40;;;;;;;20.80;13.80;;;10.20;99.90;;;;;;5073798;28;20199;-82
2024/02/28 11:41:06;;;;;;;19.83;14.30;;;9.70;99.90;;;;;;5070294;28;20252;-82
2024/02/28 11:43:34;;;;;;;19.45;15.02;;;9.60;99.90;;;;;;5076398;28;20248;-83
2024/02/28 11:46:00;;;;;;;20.80;13.10;;;10.50;99.90;;;;;;5070396;28;20214;-83
2024/02/28 11:48:27;;;;;;;16.60;13.50;;;10.30;99.90;;;;;;5067645;28;20215;-82
2024/02/28 11:50:53;;;;;;;18.55;14.48;;;10.40;99.90;;;;;;5079529;28;20441;-82
2024/02/28 11:53:19;;;;;;;19.48;14.20;;;10.40;99.90;;;;;;5076845;28;20206;-82
2024/02/28 11:55:47;;;;;;;17.10;13.83;;;10.40;99.90;;;;;;5074267;28;20215;-83
2024/02/28 11:58:13;;;;;;;17.83;14.32;;;10.50;99.90;;;;;;5074501;28;20719;-83
2024/02/28 12:00:52;;;;;;;18.97;13.60;;;10.20;99.90;;;;;;5075098;28;20230;-82
2024/02/28 12:03:24;;;;;;;19.30;13.93;;;10.20;99.90;;;;;;5074427;28;20428;-82
2024/02/28 12:05:51;;;;;;;19.80;13.70;;;9.90;99.90;;;;;;5073688;28;20210;-81
2024/02/28 12:08:19;;;;;;;18.20;14.27;;;10.40;99.90;;;;;;5078746;28;20218;-82
2024/02/28 12:10:45;;;;;;;16.88;14.20;;;10.00;99.90;;;;;;5072629;28;20188;-83
2024/02/28 12:13:12;;;;;;;18.17;13.60;;;10.10;99.90;;;;;;5083705;28;20195;-83
2024/02/28 12:15:41;;;;;;;15.85;13.15;;;10.00;99.90;;;;;;5077945;28;20206;-83
2024/02/28 12:18:11;;;;;;;16.85;13.85;;;10.80;99.90;;;;;;5076793;28;20195;-82
2024/02/28 12:20:37;;;;;;;21.63;14.32;;;9.80;99.90;;;;;;5093143;28;20202;-83
2024/02/28 12:23:04;;;;;;;20.33;14.60;;;9.90;99.90;;;;;;5087236;28;20191;-83
2024/02/28 12:25:30;;;;;;;17.85;13.57;;;9.90;99.90;;;;;;5083235;28;20222;-83
2024/02/28 12:27:55;;;;;;;17.77;13.80;;;9.90;99.90;;;;;;5079837;28;20630;-83
2024/02/28 12:30:20;;;;;;;19.63;14.37;;;10.30;99.90;;;;;;5077007;28;20185;-84